createdAt,value
2019-03-22T00:00:53.896Z,37.63
2019-03-22T00:01:53.812Z,37.63
2019-03-22T00:02:53.745Z,37.61
2019-03-22T00:04:53.827Z,37.6
2019-03-22T00:05:53.933Z,37.62
2019-03-22T00:06:53.842Z,37.64
2019-03-22T00:07:53.845Z,37.67
2019-03-22T00:09:53.885Z,37.64
2019-03-22T00:10:53.867Z,37.61
2019-03-22T00:11:53.911Z,37.6
2019-03-22T00:12:54.019Z,37.69
2019-03-22T00:14:53.931Z,37.6
2019-03-22T00:15:53.937Z,37.66
2019-03-22T00:16:53.966Z,37.63
2019-03-22T00:17:53.716Z,37.65
2019-03-22T00:19:53.723Z,37.65
2019-03-22T00:20:53.821Z,37.65
2019-03-22T00:21:53.843Z,37.65
2019-03-22T00:22:53.784Z,37.67
2019-03-22T00:25:53.894Z,37.67
2019-03-22T00:26:53.790Z,37.65
2019-03-22T00:28:53.857Z,37.67
2019-03-22T00:29:53.891Z,37.71
2019-03-22T00:30:53.955Z,37.69
2019-03-22T00:31:53.870Z,37.73
2019-03-22T00:33:53.885Z,37.69
2019-03-22T00:34:53.786Z,37.68
2019-03-22T00:36:53.757Z,37.72
2019-03-22T00:38:53.757Z,37.71
2019-03-22T00:40:53.858Z,37.71
2019-03-22T00:41:53.840Z,37.72
2019-03-22T00:42:53.836Z,37.69
2019-03-22T00:43:53.895Z,37.7
2019-03-22T00:45:53.893Z,37.72
2019-03-22T00:46:53.959Z,37.7
2019-03-22T00:47:53.862Z,37.7
2019-03-22T00:48:54.343Z,37.72
2019-03-22T00:51:54.041Z,37.7
2019-03-22T00:52:53.952Z,37.72
2019-03-22T00:54:53.708Z,37.73
2019-03-22T00:55:53.690Z,37.72
2019-03-22T00:56:53.698Z,37.71
2019-03-22T00:57:53.721Z,37.76
2019-03-22T01:00:53.802Z,37.71
2019-03-22T01:02:53.860Z,37.7
2019-03-22T01:03:54.948Z,37.71
2019-03-22T01:05:53.852Z,37.73
2019-03-22T01:06:53.976Z,37.7
2019-03-22T01:07:54.033Z,37.74
2019-03-22T01:08:53.971Z,37.72
2019-03-22T01:10:54.268Z,37.75
2019-03-22T01:11:54.190Z,37.71
2019-03-22T01:12:53.707Z,37.74
2019-03-22T01:13:53.708Z,37.7
2019-03-22T01:16:53.735Z,37.75
2019-03-22T01:17:53.773Z,37.71
2019-03-22T01:18:53.823Z,37.74
2019-03-22T01:19:53.788Z,37.74
2019-03-22T01:21:53.829Z,37.71
2019-03-22T01:22:53.901Z,37.78
2019-03-22T01:24:53.916Z,37.75
2019-03-22T01:25:53.868Z,37.71
2019-03-22T01:27:54.015Z,37.75
2019-03-22T01:28:53.901Z,37.75
2019-03-22T01:29:53.936Z,37.77
2019-03-22T01:30:53.644Z,37.74
2019-03-22T01:32:54.139Z,37.77
2019-03-22T01:33:53.688Z,37.73
2019-03-22T01:34:53.713Z,37.75
2019-03-22T01:35:53.839Z,37.73
2019-03-22T01:37:53.748Z,37.71
2019-03-22T01:39:53.963Z,37.75
2019-03-22T01:40:53.970Z,37.73
2019-03-22T01:41:53.789Z,37.71
2019-03-22T01:42:53.836Z,37.77
2019-03-22T01:44:53.968Z,37.72
2019-03-22T01:45:53.861Z,37.74
2019-03-22T01:46:53.856Z,37.75
2019-03-22T01:47:54.002Z,37.73
2019-03-22T01:49:53.688Z,37.74
2019-03-22T01:51:53.702Z,37.78
2019-03-22T01:52:53.781Z,37.74
2019-03-22T01:53:53.824Z,37.74
2019-03-22T01:54:53.798Z,37.73
2019-03-22T01:58:53.807Z,37.76
2019-03-22T01:59:53.842Z,37.76
2019-03-22T02:00:53.961Z,37.74
2019-03-22T02:01:53.842Z,37.79
2019-03-22T02:03:53.883Z,37.79
2019-03-22T02:05:53.983Z,37.79
2019-03-22T02:06:53.904Z,37.75
2019-03-22T02:08:53.671Z,37.79
2019-03-22T02:09:53.668Z,37.79
2019-03-22T02:10:53.806Z,37.79
2019-03-22T02:11:53.698Z,37.82
2019-03-22T02:14:53.701Z,37.81
2019-03-22T02:15:54.153Z,37.77
2019-03-22T02:17:53.764Z,37.79
2019-03-22T02:18:53.769Z,37.8
2019-03-22T02:19:53.772Z,37.8
2019-03-22T02:20:53.857Z,37.8
2019-03-22T02:22:53.923Z,37.77
2019-03-22T02:23:53.835Z,37.79
2019-03-22T02:25:53.884Z,37.78
2019-03-22T02:26:54.054Z,37.79
2019-03-22T02:28:04.576Z,37.78
2019-03-22T02:29:53.715Z,37.75
2019-03-22T02:30:53.748Z,37.76
2019-03-22T02:31:53.738Z,37.78
2019-03-22T02:32:53.782Z,37.74
2019-03-22T02:34:53.880Z,37.76
2019-03-22T02:35:53.812Z,37.81
2019-03-22T02:36:53.814Z,37.78
2019-03-22T02:37:53.914Z,37.78
2019-03-22T02:40:53.838Z,37.76
2019-03-22T02:41:53.903Z,37.81
2019-03-22T02:42:53.909Z,37.75
2019-03-22T02:43:55.051Z,37.77
2019-03-22T02:46:53.764Z,37.79
2019-03-22T02:48:53.655Z,37.79
2019-03-22T02:49:53.691Z,37.75
2019-03-22T02:50:56.563Z,37.75
2019-03-22T02:51:53.653Z,37.76
2019-03-22T02:53:53.707Z,37.78
2019-03-22T02:54:53.754Z,37.76
2019-03-22T02:55:54.162Z,37.78
2019-03-22T02:56:53.769Z,37.76
2019-03-22T02:58:54.156Z,37.74
2019-03-22T02:59:53.831Z,37.75
2019-03-22T03:01:53.868Z,37.81
2019-03-22T03:02:53.870Z,37.77
2019-03-22T03:03:53.695Z,37.79
2019-03-22T03:05:53.840Z,37.77
2019-03-22T03:06:53.700Z,37.75
2019-03-22T03:07:53.702Z,37.77
2019-03-22T03:08:53.785Z,37.78
2019-03-22T03:10:53.899Z,37.77
2019-03-22T03:12:54.105Z,37.77
2019-03-22T03:13:53.810Z,37.8
2019-03-22T03:16:53.913Z,37.75
2019-03-22T03:17:53.962Z,37.77
2019-03-22T03:18:53.981Z,37.74
2019-03-22T03:19:54.081Z,37.76
2019-03-22T03:21:53.753Z,37.76
2019-03-22T03:22:53.641Z,37.76
2019-03-22T03:23:53.643Z,37.74
2019-03-22T03:24:53.679Z,37.74
2019-03-22T03:26:53.865Z,37.77
2019-03-22T03:27:53.707Z,37.76
2019-03-22T03:28:53.741Z,37.79
2019-03-22T03:29:53.747Z,37.75
2019-03-22T03:31:53.803Z,37.78
2019-03-22T03:32:53.938Z,37.74
2019-03-22T03:33:53.818Z,37.77
2019-03-22T03:34:53.922Z,37.76
2019-03-22T03:36:53.836Z,37.76
2019-03-22T03:37:53.977Z,37.76
2019-03-22T03:38:53.879Z,37.73
2019-03-22T03:39:53.716Z,37.74
2019-03-22T03:41:53.931Z,37.74
2019-03-22T03:43:53.713Z,37.76
2019-03-22T03:44:53.728Z,37.74
2019-03-22T03:45:53.750Z,37.74
2019-03-22T03:46:53.723Z,37.78
2019-03-22T03:48:53.814Z,37.74
2019-03-22T03:49:53.934Z,37.74
2019-03-22T03:50:53.810Z,37.74
2019-03-22T03:51:53.841Z,37.76
2019-03-22T03:53:53.875Z,37.73
2019-03-22T03:55:53.908Z,37.76
2019-03-22T03:56:53.919Z,37.75
2019-03-22T03:57:53.656Z,37.75
2019-03-22T03:58:53.754Z,37.77
2019-03-22T04:00:53.669Z,37.74
2019-03-22T04:01:53.691Z,37.74
2019-03-22T04:03:53.690Z,37.73
2019-03-22T04:04:53.709Z,37.73
2019-03-22T04:05:53.754Z,37.71
2019-03-22T04:06:53.761Z,37.72
2019-03-22T04:08:53.768Z,37.74
2019-03-22T04:09:53.800Z,37.73
2019-03-22T04:10:53.798Z,37.73
2019-03-22T04:13:53.879Z,37.72
2019-03-22T04:14:53.768Z,37.74
2019-03-22T04:15:53.666Z,37.77
2019-03-22T04:16:53.696Z,37.74
2019-03-22T04:18:53.696Z,37.68
2019-03-22T04:19:53.706Z,37.72
2019-03-22T04:20:53.824Z,37.75
2019-03-22T04:21:53.746Z,37.75
2019-03-22T04:23:53.826Z,37.73
2019-03-22T04:26:53.915Z,37.77
2019-03-22T04:27:53.866Z,37.75
2019-03-22T04:29:08.237Z,37.72
2019-03-22T04:29:53.854Z,37.73
2019-03-22T04:31:53.887Z,37.72
2019-03-22T04:32:53.881Z,37.72
2019-03-22T04:33:53.586Z,37.7
2019-03-22T04:34:53.629Z,37.71
2019-03-22T04:36:53.653Z,37.71
2019-03-22T04:37:53.738Z,37.7
2019-03-22T04:38:53.734Z,37.71
2019-03-22T04:39:53.761Z,37.69
2019-03-22T04:41:53.707Z,37.72
2019-03-22T04:42:53.725Z,37.74
2019-03-22T04:44:53.756Z,37.73
2019-03-22T04:45:53.785Z,37.68
2019-03-22T04:46:53.774Z,37.64
2019-03-22T04:47:53.812Z,37.69
2019-03-22T04:49:53.912Z,37.8
2019-03-22T04:50:53.611Z,37.72
2019-03-22T04:51:53.632Z,37.79
2019-03-22T04:52:53.657Z,37.69
2019-03-22T04:54:53.671Z,37.8
2019-03-22T04:55:53.765Z,37.75
2019-03-22T04:56:53.701Z,37.76
2019-03-22T04:57:53.723Z,37.68
2019-03-22T04:59:53.760Z,37.66
2019-03-22T05:02:53.791Z,37.54
2019-03-22T05:03:53.790Z,37.56
2019-03-22T05:04:53.791Z,37.55
2019-03-22T05:05:53.839Z,37.52
2019-03-22T05:07:53.976Z,37.54
2019-03-22T05:08:53.839Z,37.5
2019-03-22T05:09:54.127Z,37.5
2019-03-22T05:10:53.659Z,37.52
2019-03-22T05:12:53.712Z,37.55
2019-03-22T05:13:53.653Z,37.54
2019-03-22T05:14:53.655Z,37.57
2019-03-22T05:15:53.681Z,37.56
2019-03-22T05:17:53.692Z,37.55
2019-03-22T05:18:53.686Z,37.58
2019-03-22T05:19:53.724Z,37.53
2019-03-22T05:20:53.773Z,37.53
2019-03-22T05:22:53.769Z,37.54
2019-03-22T05:23:53.752Z,37.54
2019-03-22T05:24:53.826Z,37.54
2019-03-22T05:25:53.880Z,37.55
2019-03-22T05:28:53.722Z,37.55
2019-03-22T05:29:53.696Z,37.52
2019-03-22T05:30:53.656Z,37.56
2019-03-22T05:31:53.813Z,37.52
2019-03-22T05:33:53.807Z,37.48
2019-03-22T05:34:53.703Z,37.48
2019-03-22T05:35:53.736Z,37.49
2019-03-22T05:38:53.899Z,37.47
2019-03-22T05:39:53.783Z,37.48
2019-03-22T05:40:53.790Z,37.51
2019-03-22T05:41:53.913Z,37.46
2019-03-22T05:43:53.850Z,37.44
2019-03-22T05:44:53.951Z,37.46
2019-03-22T05:46:53.570Z,37.46
2019-03-22T05:47:53.713Z,37.44
2019-03-22T05:48:53.741Z,37.46
2019-03-22T05:49:53.732Z,37.46
2019-03-22T05:53:54.158Z,37.44
2019-03-22T05:54:53.775Z,37.37
2019-03-22T05:55:53.789Z,37.44
2019-03-22T05:56:53.710Z,37.46
2019-03-22T05:58:53.720Z,37.37
2019-03-22T05:59:53.735Z,37.36
2019-03-22T06:01:53.802Z,37.34
2019-03-22T06:02:53.913Z,37.36
2019-03-22T06:04:53.619Z,37.37
2019-03-22T06:05:53.648Z,37.31
2019-03-22T06:06:53.647Z,37.34
2019-03-22T06:07:53.714Z,37.29
2019-03-22T06:09:53.764Z,37.3
2019-03-22T06:10:53.791Z,37.22
2019-03-22T06:11:53.686Z,37.29
2019-03-22T06:13:53.830Z,37.29
2019-03-22T06:14:53.841Z,37.27
2019-03-22T06:15:53.983Z,37.24
2019-03-22T06:16:53.833Z,37.23
2019-03-22T06:18:53.803Z,37.22
2019-03-22T06:19:53.809Z,37.23
2019-03-22T06:20:53.900Z,37.23
2019-03-22T06:21:53.932Z,37.22
2019-03-22T06:24:53.727Z,37.16
2019-03-22T06:25:53.606Z,37.13
2019-03-22T06:26:53.611Z,37.16
2019-03-22T06:27:53.715Z,37.21
2019-03-22T06:29:54.902Z,37.21
2019-03-22T06:30:53.623Z,37.28
2019-03-22T06:31:53.686Z,37.2
2019-03-22T06:33:53.859Z,36.36
2019-03-22T06:34:53.731Z,36.23
2019-03-22T06:35:53.740Z,35.89
2019-03-22T06:37:53.904Z,35.72
2019-03-22T06:40:53.622Z,35.18
2019-03-22T06:41:53.608Z,35.39
2019-03-22T06:42:53.701Z,35.49
2019-03-22T06:43:53.618Z,35.22
2019-03-22T06:45:53.512Z,35.32
2019-03-22T06:46:53.694Z,35.31
2019-03-22T06:47:53.804Z,35.2
2019-03-22T06:49:53.714Z,35
2019-03-22T06:50:53.736Z,35.36
2019-03-22T06:51:53.754Z,35.1
2019-03-22T06:52:53.877Z,35.16
2019-03-22T06:54:53.803Z,35.12
2019-03-22T06:55:53.793Z,35.12
2019-03-22T06:56:53.969Z,35.14
2019-03-22T06:58:53.632Z,35.13
2019-03-22T07:00:53.583Z,34.83
2019-03-22T07:01:53.632Z,34.93
2019-03-22T07:05:53.625Z,35.33
2019-03-22T07:07:53.663Z,34.86
2019-03-22T07:08:53.659Z,34.88
2019-03-22T07:09:53.723Z,35.55
2019-03-22T07:11:53.557Z,34.95
2019-03-22T07:13:53.754Z,34.8
2019-03-22T07:14:53.752Z,34.9
2019-03-22T07:15:53.762Z,34.83
2019-03-22T07:16:53.579Z,34.89
2019-03-22T07:19:53.522Z,34.88
2019-03-22T07:20:53.888Z,34.94
2019-03-22T07:22:53.659Z,34.97
2019-03-22T07:23:53.728Z,34.8
2019-03-22T07:24:53.693Z,34.81
2019-03-22T07:25:53.796Z,34.98
2019-03-22T07:27:53.719Z,34.82
2019-03-22T07:29:53.744Z,34.89
2019-03-22T07:30:53.777Z,34.85
2019-03-22T07:31:54.056Z,34.65
2019-03-22T07:32:53.801Z,34.77
2019-03-22T07:34:53.578Z,34.77
2019-03-22T07:35:53.580Z,34.89
2019-03-22T07:36:53.552Z,34.65
2019-03-22T07:39:53.627Z,34.63
2019-03-22T07:41:54.119Z,34.56
2019-03-22T07:42:53.648Z,34.56
2019-03-22T07:44:53.704Z,34.8
2019-03-22T07:45:53.800Z,35.35
2019-03-22T07:46:53.761Z,35.62
2019-03-22T07:47:56.079Z,35.24
2019-03-22T07:50:53.759Z,35.37
2019-03-22T07:51:53.581Z,35.38
2019-03-22T07:52:53.570Z,35.57
2019-03-22T07:54:53.610Z,35.46
2019-03-22T07:56:53.638Z,35.67
2019-03-22T07:58:53.651Z,35.64
2019-03-22T07:59:53.682Z,35.53
2019-03-22T08:00:53.790Z,35.61
2019-03-22T08:03:54.070Z,35.78
2019-03-22T08:04:53.835Z,35.76
2019-03-22T08:05:53.764Z,35.76
2019-03-22T08:06:53.603Z,35.8
2019-03-22T08:08:53.542Z,35.78
2019-03-22T08:09:53.965Z,35.82
2019-03-22T08:10:53.731Z,35.79
2019-03-22T08:11:53.572Z,35.78
2019-03-22T08:13:53.598Z,35.8
2019-03-22T08:14:53.611Z,35.77
2019-03-22T08:15:53.827Z,35.77
2019-03-22T08:16:53.666Z,35.77
2019-03-22T08:18:53.691Z,35.79
2019-03-22T08:19:53.753Z,35.8
2019-03-22T08:20:53.849Z,35.75
2019-03-22T08:24:53.814Z,35.82
2019-03-22T08:26:53.572Z,35.82
2019-03-22T08:27:53.718Z,35.76
2019-03-22T08:29:53.650Z,35.84
2019-03-22T08:30:53.733Z,35.87
2019-03-22T08:31:53.504Z,35.81
2019-03-22T08:32:53.781Z,35.87
2019-03-22T08:34:53.665Z,35.83
2019-03-22T08:35:53.701Z,35.81
2019-03-22T08:36:53.977Z,35.86
2019-03-22T08:37:53.751Z,35.83
2019-03-22T08:39:56.112Z,35.83
2019-03-22T08:40:53.524Z,35.81
2019-03-22T08:41:53.820Z,35.84
2019-03-22T08:42:53.535Z,35.86
2019-03-22T08:44:53.555Z,35.83
2019-03-22T08:45:53.554Z,36.17
2019-03-22T08:47:53.756Z,36.32
2019-03-22T08:48:53.650Z,36.94
2019-03-22T08:49:53.762Z,36.97
2019-03-22T08:50:53.873Z,37.18
2019-03-22T08:52:53.662Z,37.26
2019-03-22T08:53:55.870Z,37.21
2019-03-22T08:54:53.748Z,37.19
2019-03-22T08:55:53.701Z,37.22
2019-03-22T08:57:53.748Z,37.14
2019-03-22T08:58:53.749Z,37.79
2019-03-22T08:59:53.529Z,38.6
2019-03-22T09:01:53.567Z,38.43
2019-03-22T09:02:53.738Z,37.99
2019-03-22T09:03:53.767Z,38.22
2019-03-22T09:04:53.560Z,37.34
2019-03-22T09:06:53.766Z,37.35
2019-03-22T09:07:53.652Z,37.39
2019-03-22T09:09:53.780Z,37.04
2019-03-22T09:10:53.791Z,36.46
2019-03-22T09:11:53.733Z,36.55
2019-03-22T09:12:53.498Z,36.64
2019-03-22T09:14:53.800Z,36.54
2019-03-22T09:15:53.831Z,36.48
2019-03-22T09:16:53.860Z,36.43
2019-03-22T09:17:53.698Z,36.54
2019-03-22T09:19:53.565Z,36.64
2019-03-22T09:20:53.601Z,36.53
2019-03-22T09:21:53.565Z,36.68
2019-03-22T09:22:53.577Z,36.69
2019-03-22T09:24:53.738Z,36.59
2019-03-22T09:26:53.669Z,36.6
2019-03-22T09:27:53.821Z,36.6
2019-03-22T09:28:53.819Z,36.6
2019-03-22T09:29:53.852Z,36.59
2019-03-22T09:31:54.050Z,36.53
2019-03-22T09:32:53.744Z,36.9
2019-03-22T09:33:53.615Z,36.78
2019-03-22T09:34:53.678Z,36.93
2019-03-22T09:36:53.625Z,37.27
2019-03-22T09:37:53.653Z,37.24
2019-03-22T09:38:53.626Z,37.14
2019-03-22T09:39:53.716Z,37.38
2019-03-22T09:41:53.659Z,37.32
2019-03-22T09:42:53.801Z,37.69
2019-03-22T09:43:53.724Z,37.14
2019-03-22T09:45:53.718Z,37.77
2019-03-22T09:46:53.744Z,37.62
2019-03-22T09:47:53.770Z,37.75
2019-03-22T09:48:53.742Z,37.78
2019-03-22T09:50:53.462Z,37.74
2019-03-22T09:52:53.549Z,37.78
2019-03-22T09:53:53.466Z,37.76
2019-03-22T09:54:53.551Z,37.62
2019-03-22T09:55:53.706Z,37.84
2019-03-22T09:57:53.709Z,37.52
2019-03-22T09:58:53.630Z,36.24
2019-03-22T09:59:53.666Z,36.37
2019-03-22T10:00:53.917Z,37.34
2019-03-22T10:03:53.684Z,37.57
2019-03-22T10:04:53.751Z,37.36
2019-03-22T10:05:53.821Z,37.77
2019-03-22T10:07:53.522Z,37.4
2019-03-22T10:09:53.626Z,37.82
2019-03-22T10:10:53.487Z,37.23
2019-03-22T10:11:53.787Z,37.28
2019-03-22T10:12:53.561Z,36.83
2019-03-22T10:15:53.635Z,36.94
2019-03-22T10:16:53.782Z,36.73
2019-03-22T10:17:53.685Z,36.72
2019-03-22T10:18:53.586Z,36.7
2019-03-22T10:20:53.740Z,36.71
2019-03-22T10:21:53.818Z,36.91
2019-03-22T10:23:53.983Z,37.02
2019-03-22T10:25:53.483Z,36.58
2019-03-22T10:27:53.692Z,36.73
2019-03-22T10:28:53.645Z,36.74
2019-03-22T10:29:53.603Z,36.65
2019-03-22T10:30:53.585Z,36.61
2019-03-22T10:32:53.873Z,36.65
2019-03-22T10:33:53.650Z,36.63
2019-03-22T10:35:53.633Z,36.79
2019-03-22T10:36:53.615Z,36.68
2019-03-22T10:38:01.184Z,36.71
2019-03-22T10:38:53.677Z,36.66
2019-03-22T10:40:53.863Z,36.82
2019-03-22T10:41:53.733Z,36.8
2019-03-22T10:43:53.496Z,36.86
2019-03-22T10:44:53.676Z,36.92
2019-03-22T10:45:53.538Z,37.04
2019-03-22T10:46:53.594Z,36.65
2019-03-22T10:48:53.604Z,36.91
2019-03-22T10:49:53.487Z,37.07
2019-03-22T10:50:53.612Z,36.77
2019-03-22T10:51:58.313Z,37.06
2019-03-22T10:53:53.769Z,36.86
2019-03-22T10:55:53.827Z,36.65
2019-03-22T10:57:55.738Z,36.86
2019-03-22T10:58:53.734Z,36.98
2019-03-22T10:59:53.813Z,37.15
2019-03-22T11:00:53.502Z,36.79
2019-03-22T11:02:53.522Z,36.79
2019-03-22T11:03:53.883Z,37.06
2019-03-22T11:04:53.551Z,37.42
2019-03-22T11:05:53.439Z,37.29
2019-03-22T11:07:53.576Z,37.21
2019-03-22T11:08:53.597Z,37.34
2019-03-22T11:10:53.642Z,37.33
2019-03-22T11:11:53.668Z,37.47
2019-03-22T11:12:53.655Z,37.48
2019-03-22T11:13:53.459Z,37.4
2019-03-22T11:15:54.042Z,37.28
2019-03-22T11:16:53.575Z,37.25
2019-03-22T11:17:53.632Z,37.56
2019-03-22T11:18:53.516Z,37.61
2019-03-22T11:20:53.550Z,37.5
2019-03-22T11:21:53.586Z,37.56
2019-03-22T11:22:53.420Z,37.5
2019-03-22T11:23:53.606Z,37.51
2019-03-22T11:26:04.213Z,37.5
2019-03-22T11:26:53.637Z,37.22
2019-03-22T11:27:53.643Z,37.57
2019-03-22T11:29:53.683Z,37.46
2019-03-22T11:30:53.504Z,37.3
2019-03-22T11:31:53.803Z,37.26
2019-03-22T11:32:53.736Z,37.39
2019-03-22T11:34:53.470Z,37.5
2019-03-22T11:35:53.481Z,37.54
2019-03-22T11:37:53.822Z,37.43
2019-03-22T11:38:53.528Z,37.27
2019-03-22T11:39:53.436Z,37.13
2019-03-22T11:40:53.669Z,37.6
2019-03-22T11:42:53.640Z,37.19
2019-03-22T11:43:53.609Z,37.64
2019-03-22T11:44:53.605Z,37.45
2019-03-22T11:45:53.703Z,37.49
2019-03-22T11:47:53.439Z,37.17
2019-03-22T11:48:53.675Z,37.82
2019-03-22T11:49:53.793Z,37.33
2019-03-22T11:51:53.588Z,37.21
2019-03-22T11:52:53.514Z,37.59
2019-03-22T11:53:53.650Z,37.59
2019-03-22T11:54:53.537Z,37.52
2019-03-22T11:56:53.466Z,37.56
2019-03-22T11:57:53.644Z,36.96
2019-03-22T11:58:53.605Z,37.46
2019-03-22T11:59:53.735Z,37.5
2019-03-22T12:03:53.694Z,36.76
2019-03-22T12:04:53.742Z,36.96
2019-03-22T12:05:53.758Z,36.85
2019-03-22T12:06:53.717Z,36.87
2019-03-22T12:08:53.473Z,36.72
2019-03-22T12:09:53.512Z,36.83
2019-03-22T12:10:53.478Z,36.73
2019-03-22T12:11:53.509Z,36.75
2019-03-22T12:13:53.530Z,36.82
2019-03-22T12:14:53.548Z,36.64
2019-03-22T12:15:53.551Z,36.69
2019-03-22T12:16:53.583Z,36.69
2019-03-22T12:18:53.611Z,36.83
2019-03-22T12:19:53.712Z,36.83
2019-03-22T12:20:54.087Z,36.84
2019-03-22T12:21:53.735Z,36.85
2019-03-22T12:23:53.603Z,36.86
2019-03-22T12:24:53.606Z,36.87
2019-03-22T12:25:53.462Z,36.86
2019-03-22T12:26:53.531Z,36.82
2019-03-22T12:28:53.566Z,36.83
2019-03-22T12:29:53.585Z,36.82
2019-03-22T12:31:53.698Z,36.94
2019-03-22T12:32:53.624Z,36.89
2019-03-22T12:34:04.146Z,37.2
2019-03-22T12:35:05.210Z,37.27
2019-03-22T12:36:53.711Z,37.37
2019-03-22T12:37:53.766Z,37.33
2019-03-22T12:38:53.529Z,37.26
2019-03-22T12:39:53.572Z,37.26
2019-03-22T12:41:53.848Z,36.8
2019-03-22T12:42:53.859Z,36.83
2019-03-22T12:43:53.455Z,37.4
2019-03-22T12:44:53.508Z,36.79
2019-03-22T12:46:53.553Z,36.76
2019-03-22T12:47:53.569Z,37.29
2019-03-22T12:49:53.601Z,36.67
2019-03-22T12:50:53.604Z,36.78
2019-03-22T12:51:53.503Z,36.85
2019-03-22T12:52:53.623Z,36.6
2019-03-22T12:54:53.729Z,36.53
2019-03-22T12:55:53.692Z,36.66
2019-03-22T12:56:53.489Z,36.64
2019-03-22T12:58:53.540Z,36.37
2019-03-22T12:59:53.542Z,36.47
2019-03-22T13:00:53.552Z,36.66
2019-03-22T13:01:53.476Z,36.43
2019-03-22T13:03:53.993Z,36.44
2019-03-22T13:04:53.570Z,36.64
2019-03-22T13:06:53.678Z,36.71
2019-03-22T13:07:53.712Z,36.7
2019-03-22T13:09:53.566Z,36.73
2019-03-22T13:10:53.696Z,36.72
2019-03-22T13:11:53.536Z,36.74
2019-03-22T13:13:53.473Z,36.72
2019-03-22T13:15:53.480Z,36.72
2019-03-22T13:16:53.483Z,36.73
2019-03-22T13:17:53.501Z,36.72
2019-03-22T13:18:53.438Z,36.72
2019-03-22T13:20:53.649Z,36.72
2019-03-22T13:21:53.571Z,36.71
2019-03-22T13:23:53.577Z,36.7
2019-03-22T13:24:54.037Z,36.7
2019-03-22T13:25:53.791Z,36.74
2019-03-22T13:27:53.767Z,36.74
2019-03-22T13:28:53.473Z,36.7
2019-03-22T13:30:53.566Z,36.67
2019-03-22T13:31:53.488Z,36.72
2019-03-22T13:32:53.413Z,36.69
2019-03-22T13:33:53.545Z,36.7
2019-03-22T13:35:53.555Z,36.7
2019-03-22T13:36:53.621Z,36.7
2019-03-22T13:37:53.673Z,36.72
2019-03-22T13:39:53.690Z,36.76
2019-03-22T13:40:53.613Z,36.76
2019-03-22T13:41:53.410Z,36.75
2019-03-22T13:42:53.690Z,36.75
2019-03-22T13:44:53.365Z,36.73
2019-03-22T13:45:53.487Z,36.94
2019-03-22T13:46:53.623Z,37.19
2019-03-22T13:48:53.494Z,37.39
2019-03-22T13:49:53.515Z,36.49
2019-03-22T13:50:53.709Z,36.4
2019-03-22T13:51:53.688Z,35.95
2019-03-22T13:53:53.640Z,36.01
2019-03-22T13:54:53.555Z,35.59
2019-03-22T13:55:53.591Z,35.73
2019-03-22T13:56:53.428Z,35.65
2019-03-22T13:58:53.725Z,35.78
2019-03-22T13:59:53.845Z,36.13
2019-03-22T14:00:53.451Z,35.37
2019-03-22T14:01:53.448Z,35.92
2019-03-22T14:04:53.418Z,35.77
2019-03-22T14:05:53.545Z,35.93
2019-03-22T14:06:53.560Z,35.9
2019-03-22T14:07:53.947Z,35.96
2019-03-22T14:09:53.564Z,36.19
2019-03-22T14:10:53.647Z,36.25
2019-03-22T14:11:53.624Z,36.03
2019-03-22T14:12:53.375Z,35.97
2019-03-22T14:14:53.672Z,35.76
2019-03-22T14:15:53.657Z,35.48
2019-03-22T14:16:54.275Z,35.56
2019-03-22T14:17:53.397Z,35.74
2019-03-22T14:19:53.399Z,35.5
2019-03-22T14:20:53.586Z,35.89
2019-03-22T14:21:53.459Z,35.54
2019-03-22T14:22:54.112Z,35.21
2019-03-22T14:24:53.540Z,35.14
2019-03-22T14:25:53.551Z,35.15
2019-03-22T14:26:53.709Z,35.16
2019-03-22T14:27:53.636Z,35.05
2019-03-22T14:30:53.915Z,35.28
2019-03-22T14:31:53.699Z,35.4
2019-03-22T14:32:53.628Z,35.16
2019-03-22T14:33:53.427Z,35.41
2019-03-22T14:53:49.728Z,36.99
2019-03-22T14:54:49.579Z,35.21
2019-03-22T14:55:49.630Z,35.37
2019-03-22T14:56:51.701Z,35.3
2019-03-22T14:57:52.609Z,35.45
2019-03-22T14:58:49.706Z,35.56
2019-03-22T14:59:59.365Z,35.49
2019-03-22T15:00:49.664Z,35.6
2019-03-22T15:01:49.671Z,35.54
2019-03-22T15:02:49.794Z,35.64
2019-03-22T15:03:49.809Z,35.37
2019-03-22T15:04:50.136Z,35.49
2019-03-22T15:05:49.815Z,35.65
2019-03-22T15:06:49.611Z,35.31
2019-03-22T15:07:49.744Z,35.66
2019-03-22T15:08:49.771Z,35.45
2019-03-22T15:09:49.793Z,35.31
2019-03-22T15:10:49.652Z,35.21
2019-03-22T15:11:49.861Z,35.16
2019-03-22T15:12:49.547Z,35.19
2019-03-22T15:13:49.729Z,35.01
2019-03-22T15:14:49.550Z,34.93
2019-03-22T15:15:49.616Z,34.87
2019-03-22T15:16:49.687Z,34.88
2019-03-22T15:17:49.669Z,34.85
2019-03-22T15:18:49.550Z,34.86
2019-03-22T15:19:49.667Z,34.8
2019-03-22T15:20:49.655Z,34.82
2019-03-22T15:21:49.284Z,34.91
2019-03-22T15:22:49.140Z,34.89
2019-03-22T15:23:49.464Z,35.06
2019-03-22T15:24:49.305Z,35.05
2019-03-22T15:25:49.323Z,35.01
2019-03-22T15:26:49.330Z,35.01
2019-03-22T15:27:49.409Z,35.06
2019-03-22T15:28:49.479Z,35.08
2019-03-22T15:29:49.170Z,35.06
2019-03-22T15:30:49.232Z,35.04
2019-03-22T15:31:49.187Z,35.01
2019-03-22T15:32:49.249Z,35.11
2019-03-22T15:33:49.510Z,35.14
2019-03-22T15:34:49.116Z,35.16
2019-03-22T15:35:49.845Z,35.17
2019-03-22T15:36:49.249Z,35.17
2019-03-22T15:37:49.355Z,35.2
2019-03-22T15:38:49.527Z,35.19
2019-03-22T15:39:49.297Z,35.21
2019-03-22T15:40:49.293Z,35.23
2019-03-22T15:41:49.308Z,35.24
2019-03-22T15:42:49.446Z,35.22
2019-03-22T15:43:49.343Z,35.48
2019-03-22T15:44:49.487Z,35.49
2019-03-22T15:45:49.359Z,35.36
2019-03-22T15:46:49.361Z,35.48
2019-03-22T15:47:49.392Z,35.54
2019-03-22T15:48:49.484Z,35.5
2019-03-22T15:49:49.125Z,35.4
2019-03-22T15:50:49.276Z,35.51
2019-03-22T15:51:49.168Z,35.44
2019-03-22T15:52:49.247Z,35.37
2019-03-22T15:53:49.187Z,35.4
2019-03-22T15:54:49.178Z,35.6
2019-03-22T15:55:49.230Z,35.51
2019-03-22T15:56:49.325Z,35.68
2019-03-22T15:57:49.281Z,35.82
2019-03-22T15:58:49.256Z,35.95
2019-03-22T15:59:49.338Z,36.05
2019-03-22T16:00:49.154Z,36.08
2019-03-22T16:01:49.286Z,36.11
2019-03-22T16:02:49.336Z,36.12
2019-03-22T16:03:49.300Z,36.22
2019-03-22T16:04:49.357Z,36.2
2019-03-22T16:05:49.361Z,36.24
2019-03-22T16:06:49.365Z,36.29
2019-03-22T16:07:49.261Z,36.35
2019-03-22T16:08:49.174Z,36.4
2019-03-22T16:09:49.228Z,36.44
2019-03-22T16:10:49.188Z,36.44
2019-03-22T16:11:49.205Z,36.45
2019-03-22T16:12:49.191Z,36.46
2019-03-22T16:13:49.264Z,36.55
2019-03-22T16:14:49.378Z,36.54
2019-03-22T16:15:49.302Z,36.5
2019-03-22T16:16:50.137Z,36.51
2019-03-22T16:17:49.263Z,36.54
2019-03-22T16:18:49.419Z,36.43
2019-03-22T16:19:49.532Z,36.49
2019-03-22T16:21:00.087Z,36.49
2019-03-22T16:21:49.397Z,36.46
2019-03-22T16:22:49.343Z,36.5
2019-03-22T16:23:49.334Z,36.47
2019-03-22T16:24:49.381Z,36.51
2019-03-22T16:25:49.380Z,36.51
2019-03-22T16:26:49.361Z,36.53
2019-03-22T16:27:49.119Z,36.52
2019-03-22T16:28:49.129Z,36.49
2019-03-22T16:29:49.263Z,36.51
2019-03-22T16:30:49.128Z,36.5
2019-03-22T16:31:49.179Z,36.51
2019-03-22T16:32:49.214Z,36.54
2019-03-22T16:33:55.012Z,36.5
2019-03-22T16:34:49.164Z,36.6
2019-03-22T16:35:49.215Z,36.69
2019-03-22T16:36:49.228Z,36.75
2019-03-22T16:37:49.259Z,36.8
2019-03-22T16:38:49.086Z,36.74
2019-03-22T16:39:49.295Z,36.68
2019-03-22T16:40:49.521Z,36.72
2019-03-22T16:41:49.339Z,36.78
2019-03-22T16:42:49.330Z,36.84
2019-03-22T16:43:49.334Z,36.78
2019-03-22T16:44:49.101Z,36.71
2019-03-22T16:45:49.306Z,36.76
2019-03-22T16:46:49.212Z,36.77
2019-03-22T16:47:49.184Z,36.8
2019-03-22T16:48:49.290Z,36.73
2019-03-22T16:49:49.172Z,36.64
2019-03-22T16:50:49.183Z,36.6
2019-03-22T16:51:49.350Z,36.66
2019-03-22T16:52:49.118Z,36.58
2019-03-22T16:53:49.331Z,36.59
2019-03-22T16:54:49.239Z,36.54
2019-03-22T16:55:49.263Z,36.52
2019-03-22T16:56:49.407Z,36.51
2019-03-22T16:57:49.416Z,36.63
2019-03-22T16:58:49.343Z,36.59
2019-03-22T16:59:49.405Z,36.53
2019-03-22T17:00:50.195Z,36.66
2019-03-22T17:01:49.448Z,36.6
2019-03-22T17:02:49.632Z,36.57
2019-03-22T17:03:49.098Z,36.52
2019-03-22T17:04:49.262Z,36.46
2019-03-22T17:05:49.126Z,36.53
2019-03-22T17:06:49.358Z,36.46
2019-03-22T17:07:49.210Z,36.42
2019-03-22T17:08:49.175Z,36.54
2019-03-22T17:09:49.181Z,36.53
2019-03-22T17:10:49.190Z,36.38